createdAt,value
2023-02-19T00:03:14.430Z,99341.73
2023-02-19T00:08:17.048Z,99337.66
2023-02-19T00:13:19.809Z,99344.05
2023-02-19T00:18:23.325Z,99346.19
2023-02-19T00:23:27.059Z,99346.64
2023-02-19T00:28:30.780Z,99349.19
2023-02-19T00:33:36.504Z,99348.11
2023-02-19T00:38:40.508Z,99347.61
2023-02-19T00:43:43.184Z,99343.41
2023-02-19T00:48:46.675Z,99340.94
2023-02-19T00:53:49.641Z,99344.89
2023-02-19T00:58:52.613Z,99353.44
2023-02-19T01:03:55.430Z,99364.80
2023-02-19T01:08:58.832Z,99369.44
2023-02-19T01:14:02.346Z,99370.42
2023-02-19T01:19:04.962Z,99368.12
2023-02-19T01:24:07.609Z,99369.70
2023-02-19T01:29:10.520Z,99368.35
2023-02-19T01:34:13.157Z,99365.37
2023-02-19T01:39:15.842Z,99358.70
2023-02-19T01:44:18.511Z,99358.95
2023-02-19T01:49:27.115Z,99358.25
2023-02-19T01:54:34.804Z,99348.75
2023-02-19T01:59:38.226Z,99354.41
2023-02-19T02:04:41.005Z,99358.58
2023-02-19T02:09:59.517Z,99354.73
2023-02-19T02:15:03.120Z,99353.20
2023-02-19T02:20:36.540Z,99353.89
2023-02-19T02:25:55.265Z,99347.58
2023-02-19T02:31:04.409Z,99345.87
2023-02-19T02:36:14.712Z,99347.56
2023-02-19T02:41:17.358Z,99357.78
2023-02-19T02:46:28.175Z,99364.12
2023-02-19T02:51:36.259Z,99363.08
2023-02-19T02:56:41.333Z,99354.80
2023-02-19T03:02:05.875Z,99349.34
2023-02-19T03:07:10.448Z,99350.58
2023-02-19T03:12:30.501Z,99347.08
2023-02-19T03:17:57.874Z,99345.55
2023-02-19T03:23:02.078Z,99345.11
2023-02-19T03:28:08.790Z,99343.19
2023-02-19T03:33:19.064Z,99343.91
2023-02-19T03:38:40.716Z,99345.58
2023-02-19T03:43:50.800Z,99338.94
2023-02-19T03:49:00.107Z,99341.85
2023-02-19T03:54:09.270Z,99337.27
2023-02-19T03:59:17.358Z,99334.75
2023-02-19T04:04:36.479Z,99336.36
2023-02-19T04:09:46.820Z,99334.35
2023-02-19T04:14:54.790Z,99334.30
2023-02-19T04:20:00.817Z,99329.56
2023-02-19T04:25:05.245Z,99329.95
2023-02-19T04:30:11.282Z,99330.23
2023-02-19T04:35:13.979Z,99326.85
2023-02-19T04:40:17.229Z,99323.26
2023-02-19T04:45:19.779Z,99322.25
2023-02-19T04:50:23.310Z,99322.27
2023-02-19T04:55:26.149Z,99315.58
2023-02-19T05:00:28.740Z,99314.45
2023-02-19T05:05:31.575Z,99311.00
2023-02-19T05:10:34.732Z,99312.87
2023-02-19T05:15:37.387Z,99307.30
2023-02-19T05:20:40.085Z,99309.23
2023-02-19T05:25:42.724Z,99307.79
2023-02-19T05:30:51.433Z,99304.15
2023-02-19T05:35:55.986Z,99305.70
2023-02-19T05:41:16.943Z,99314.23
2023-02-19T05:46:22.840Z,99321.00
2023-02-19T05:51:27.448Z,99320.94
2023-02-19T05:56:33.253Z,99324.87
2023-02-19T06:01:36.175Z,99324.13
2023-02-19T06:06:39.276Z,99329.98
2023-02-19T06:11:43.360Z,99329.52
2023-02-19T06:16:46.054Z,99336.17
2023-02-19T06:21:50.357Z,99342.34
2023-02-19T06:26:52.943Z,99345.90
2023-02-19T06:31:55.725Z,99352.14
2023-02-19T06:36:59.256Z,99355.21
2023-02-19T06:42:01.825Z,99357.33
2023-02-19T06:47:05.464Z,99360.14
2023-02-19T06:52:08.182Z,99368.38
2023-02-19T06:57:10.778Z,99372.68
2023-02-19T07:02:13.701Z,99377.45
2023-02-19T07:07:17.638Z,99378.20
2023-02-19T07:12:20.224Z,99385.05
2023-02-19T07:17:22.820Z,99385.58
2023-02-19T07:22:25.673Z,99393.45
2023-02-19T07:27:28.300Z,99404.08
2023-02-19T07:32:31.006Z,99409.45
2023-02-19T07:37:34.696Z,99413.26
2023-02-19T07:42:37.728Z,99416.33
2023-02-19T07:47:40.377Z,99419.05
2023-02-19T07:52:43.100Z,99429.09
2023-02-19T07:57:45.731Z,99433.23
2023-02-19T08:03:04.430Z,99433.40
2023-02-19T08:08:09.615Z,99436.84
2023-02-19T08:13:31.066Z,99443.95
2023-02-19T08:18:35.214Z,99448.47
2023-02-19T08:23:38.181Z,99456.36
2023-02-19T08:28:41.828Z,99459.55
2023-02-19T08:33:44.432Z,99456.84
2023-02-19T08:38:47.818Z,99458.30
2023-02-19T08:43:50.485Z,99473.03
2023-02-19T08:48:53.206Z,99479.39
2023-02-19T08:53:55.914Z,99480.81
2023-02-19T08:58:58.526Z,99488.30
2023-02-19T09:04:01.163Z,99493.45
2023-02-19T09:09:03.940Z,99500.37
2023-02-19T09:14:07.602Z,99505.02
2023-02-19T09:19:10.213Z,99505.77
2023-02-19T09:24:13.470Z,99499.94
2023-02-19T09:29:21.158Z,99502.73
2023-02-19T09:34:25.331Z,99510.55
2023-02-19T09:39:29.388Z,99515.02
2023-02-19T09:44:38.107Z,99515.70
2023-02-19T09:49:49.820Z,99516.46
2023-02-19T09:54:57.995Z,99522.42
2023-02-19T10:00:07.233Z,99526.21
2023-02-19T10:05:18.172Z,99527.47
2023-02-19T10:10:27.378Z,99534.67
2023-02-19T10:15:38.113Z,99540.25
2023-02-19T10:20:40.838Z,99541.16
2023-02-19T10:25:54.316Z,99551.56
2023-02-19T10:31:00.342Z,99559.40
2023-02-19T10:36:06.216Z,99562.27
2023-02-19T10:41:23.075Z,99562.50
2023-02-19T10:46:29.684Z,99562.96
2023-02-19T10:51:35.168Z,99564.64
2023-02-19T10:56:40.758Z,99569.48
2023-02-19T11:02:04.013Z,99569.19
2023-02-19T11:07:13.932Z,99574.28
2023-02-19T11:12:33.385Z,99570.30
2023-02-19T11:17:36.585Z,99574.55
2023-02-19T11:22:41.988Z,99576.80
2023-02-19T11:28:06.813Z,99583.15
2023-02-19T11:33:24.376Z,99596.94
2023-02-19T11:38:27.252Z,99593.49
2023-02-19T11:43:53.372Z,99602.70
2023-02-19T11:49:27.631Z,99607.09
2023-02-19T11:54:39.433Z,99607.85
2023-02-19T12:00:01.091Z,99613.45
2023-02-19T12:05:20.531Z,99619.65
2023-02-19T12:10:55.146Z,99618.30
2023-02-19T12:16:04.910Z,99621.81
2023-02-19T12:21:18.626Z,99620.92
2023-02-19T12:26:30.257Z,99634.64
2023-02-19T12:31:58.729Z,99638.30
2023-02-19T12:37:33.320Z,99636.78
2023-02-19T12:42:54.819Z,99646.94
2023-02-19T12:48:06.316Z,99650.43
2023-02-19T12:53:51.494Z,99650.92
2023-02-19T12:59:01.131Z,99654.86
2023-02-19T13:04:39.657Z,99659.88
2023-02-19T13:09:55.280Z,99668.36
2023-02-19T13:15:02.632Z,99669.79
2023-02-19T13:20:20.360Z,99672.00
2023-02-19T13:26:00.168Z,99676.98
2023-02-19T13:31:11.908Z,99682.90
2023-02-19T13:36:24.086Z,99682.05
2023-02-19T13:41:27.152Z,99683.15
2023-02-19T13:46:46.975Z,99683.09
2023-02-19T13:51:57.213Z,99695.91
2023-02-19T13:57:29.326Z,99691.91
2023-02-19T14:02:35.148Z,99699.70
2023-02-19T14:08:03.066Z,99712.46
2023-02-19T14:13:10.046Z,99717.35
2023-02-19T14:18:43.671Z,99721.55
2023-02-19T14:23:56.711Z,99722.41
2023-02-19T14:29:01.532Z,99729.02
2023-02-19T14:34:14.112Z,99724.64
2023-02-19T14:39:40.152Z,99732.34
2023-02-19T14:44:57.419Z,99746.20
2023-02-19T14:50:04.702Z,99748.19
2023-02-19T14:55:20.725Z,99754.22
2023-02-19T15:00:43.658Z,99760.92
2023-02-19T15:05:46.687Z,99769.08
2023-02-19T15:10:50.489Z,99773.83
2023-02-19T15:15:55.376Z,99774.59
2023-02-19T15:21:03.965Z,99779.85
2023-02-19T15:26:21.289Z,99785.33
2023-02-19T15:31:24.004Z,99794.97
2023-02-19T15:36:33.970Z,99805.93
2023-02-19T15:41:36.759Z,99816.96
2023-02-19T15:46:41.622Z,99827.20
2023-02-19T15:51:57.094Z,99837.62
2023-02-19T15:57:06.007Z,99845.94
2023-02-19T16:02:13.548Z,99852.58
2023-02-19T16:07:32.756Z,99863.19
2023-02-19T16:12:35.992Z,99867.69
2023-02-19T16:17:43.161Z,99867.17
2023-02-19T16:22:45.976Z,99877.48
2023-02-19T16:27:48.872Z,99890.34
2023-02-19T16:33:21.936Z,99898.30
2023-02-19T16:38:24.709Z,99900.67
2023-02-19T16:43:44.872Z,99904.27
2023-02-19T16:48:48.366Z,99905.80
2023-02-19T16:53:51.164Z,99903.47
2023-02-19T16:58:53.907Z,99915.48
2023-02-19T17:04:02.933Z,99926.85
2023-02-19T17:09:09.175Z,99931.20
2023-02-19T17:14:13.156Z,99938.85
2023-02-19T17:19:18.301Z,99950.75
2023-02-19T17:24:20.986Z,99957.42
2023-02-19T17:29:24.551Z,99955.91
2023-02-19T17:34:30.876Z,99960.27
2023-02-19T17:39:33.514Z,99954.02
2023-02-19T17:44:36.143Z,99953.38
2023-02-19T17:49:38.765Z,99958.86
2023-02-19T17:54:42.946Z,99963.89
2023-02-19T17:59:45.639Z,99961.59
2023-02-19T18:04:48.192Z,99966.80
2023-02-19T18:09:50.772Z,99974.98
2023-02-19T18:14:54.601Z,99983.51
2023-02-19T18:19:57.182Z,99983.92
2023-02-19T18:25:00.105Z,99990.36
2023-02-19T18:30:03.302Z,99989.52
2023-02-19T18:35:06.472Z,99990.73
2023-02-19T18:40:11.456Z,99986.05
2023-02-19T18:45:14.108Z,99986.77
2023-02-19T18:50:18.239Z,99993.05
2023-02-19T18:55:23.291Z,100003.43
2023-02-19T19:00:26.659Z,100009.59
2023-02-19T19:05:29.356Z,100011.34
2023-02-19T19:10:31.956Z,100012.75
2023-02-19T19:15:35.296Z,100004.52
2023-02-19T19:20:37.983Z,99999.52
2023-02-19T19:25:40.558Z,99994.08
2023-02-19T19:30:43.257Z,99992.64
2023-02-19T19:35:45.965Z,99985.10
2023-02-19T19:40:48.756Z,99987.59
2023-02-19T19:45:51.474Z,99998.20
2023-02-19T19:50:56.654Z,99990.96
2023-02-19T19:56:01.126Z,99983.25
2023-02-19T20:01:07.070Z,99981.20
2023-02-19T20:06:10.182Z,99985.63
2023-02-19T20:11:13.096Z,99985.13
2023-02-19T20:16:16.087Z,99994.30
2023-02-19T20:21:18.852Z,100003.05
2023-02-19T20:26:27.215Z,100007.83
2023-02-19T20:31:33.836Z,100012.25
2023-02-19T20:36:44.646Z,100007.52
2023-02-19T20:41:50.545Z,100011.11
2023-02-19T20:46:54.952Z,100017.70
2023-02-19T20:52:00.494Z,100021.17
2023-02-19T20:57:05.537Z,100014.85
2023-02-19T21:02:16.779Z,100013.39
2023-02-19T21:07:20.147Z,100015.60
2023-02-19T21:12:23.265Z,100014.69
2023-02-19T21:17:26.042Z,100008.04
2023-02-19T21:22:31.181Z,100009.10
2023-02-19T21:27:34.950Z,100009.23
2023-02-19T21:32:37.565Z,100013.73
2023-02-19T21:37:43.074Z,100008.08
2023-02-19T21:42:46.412Z,100010.77
2023-02-19T21:47:52.036Z,100009.98
2023-02-19T21:52:55.276Z,99999.48
2023-02-19T21:57:58.381Z,99989.70
2023-02-19T22:03:01.023Z,99987.05
2023-02-19T22:08:03.924Z,99993.56
2023-02-19T22:13:06.542Z,99990.46
2023-02-19T22:18:09.187Z,99986.91
2023-02-19T22:23:11.750Z,99985.80
2023-02-19T22:28:14.605Z,99986.91
2023-02-19T22:33:17.186Z,99988.95
2023-02-19T22:38:20.127Z,99980.14
2023-02-19T22:43:22.698Z,99981.77
2023-02-19T22:48:30.094Z,99974.24
2023-02-19T22:53:33.092Z,99979.44
2023-02-19T22:58:35.732Z,99985.80
2023-02-19T23:03:55.995Z,99975.07
2023-02-19T23:09:04.558Z,99971.23
2023-02-19T23:14:07.767Z,99966.33
2023-02-19T23:19:13.325Z,99957.86
2023-02-19T23:24:17.894Z,99953.45
2023-02-19T23:29:25.167Z,99949.95
2023-02-19T23:34:28.584Z,99949.52
2023-02-19T23:39:31.240Z,99946.80
2023-02-19T23:44:33.959Z,99947.77
2023-02-19T23:49:36.608Z,99946.50
2023-02-19T23:54:39.452Z,99944.95
2023-02-19T23:59:42.062Z,99952.80
